Terminal Aerodrome Forecast
Issued by NWS

Home | Current Version | Previous Version | Text Only | Print | Product List | Glossary On
Versions: 1 2 3 4 5 6 7 8 9 10 11 12 13 14 15 16 17 18 19 20 21 22
000
FTUS45 KSLC 280520
TAFLGU
TAF
KLGU 280520Z 2806/2906 22007KT P6SM FEW090 SCT140
     FM280900 VRB04KT P6SM SCT090 BKN120
     FM281800 VRB04KT P6SM VCSH BKN070 BKN090
     FM290300 14004KT P6SM SCT070 BKN100=

USA.gov is the U.S. government's official web portal to all federal, state and local government web resources and services.